Página principal
METAR-TAF:

METAR-TAF

Aeroportos :

Ilha da Boa Vista, Cabo Verde

Aeroporto Internacional Aristides Pereira

latitude: 16-08-15N, longitude: 22-53-22W, altura: 21 m

Observação actual do tempo

O boletim foi feito há 22 minutos, às 14:00 UTC
Vento 10 kt de nordeste
Temperatura 27°C
Humidade 66%
Pressão 1015 hPa
Visibilidade 10 km ou mais
Nuvens fragmentadasa uma altura de 1500 ft

METAR: GVBA 201400Z 04010KT 9999 BKN015 27/20 Q1015 NOSIG

Hora: 13:22 (14:22 UTC)

Previsão

O boletim foi feito há 3 horas e 22 minutos, às 11:00 UTC
Previsão válida de 20 às 12 UTC a 21 às 18 UTC
Vento 12 kt de este
Visibilidade 10 km ou mais
Nuvens dispersasa uma altura de 1500 ft

TAF: GVBA 201100Z 2012/2118 08012KT 9999 SCT015

Observações e previsões do tempo de mais de 4000 aeroportos (mensagens METAR e TAF).

As estações disponíveis são os pontos amarelos e vermelhos sobre o mapa.

Mova o rato sobre o mapa para ver o nome da estação.

Depois clique no ponto para visualizar as observações e previsões meteorológicas.

Para alterar o mapa : clique nos botões verdes com uma cruz preta para aumentar o zoom; no botão verde com uma pitada de zoom; ou nas setas verdes para mapas adjacentes.


METAR-TAF: